Skip to main content.
 TIME   TEMPERATURE   WINDSPEED   DIRECTION   HUMIDITY   BAROMETER   RAINFALL 
9:45 27.0°C (80.6°F) 9.3 kmh (5.8 mph) NW 65% 1015.9hPa (30.00 inHg) 0.0mm (0.00 in.)
8:45 25.0°C (77.0 °F) 7.4 kmh (4.6 mph) W 78% 1015.9hPa (30.00 inHg) 0.0mm (0.00 in.)
7:45 23.0°C (73.4 °F) 5.6 kmh (3.5 mph) NW 88% 1014.9hPa (29.97 inHg) 0.0mm (0.00 in.)
6:45 21.0°C (69.8 °F) 3.7 kmh (2.3 mph) W 94% 1014.9hPa (29.97 inHg) 0.0mm (0.00 in.)
5:45 22.0°C (71.6 °F) 7.4 kmh (4.6 mph) W 88% 1014.9hPa (29.97 inHg) 0.0mm (0.00 in.)
4:45 22.0°C (71.6 °F) 7.4 kmh (4.6 mph) WNW 88% 1014.9hPa (29.97 inHg) 0.0mm (0.00 in.)
3:45 22.0°C (71.6 °F) 9.3 kmh (5.8 mph) NW 94% 1014.9hPa (29.97 inHg) 0.0mm (0.00 in.)
2:45 23.0°C (73.4 °F) 9.3 kmh (5.8 mph) NW 88% 1015.9hPa (30.00 inHg) 0.0mm (0.00 in.)
1:45 23.0°C (73.4 °F) 7.4 kmh (4.6 mph) NW 88% 1015.9hPa (30.00 inHg) 0.0mm (0.00 in.)
0:45 23.0°C (73.4 °F) 9.3 kmh (5.8 mph) NW 88% 1015.9hPa (30.00 inHg) 0.0mm (0.00 in.)
23:45 24.0°C (75.2 °F) 9.3 kmh (5.8 mph) NNW 78% 1015.9hPa (30.00 inHg) 0.0mm (0.00 in.)
22:45 24.0°C (75.2 °F) 9.3 kmh (5.8 mph) N 78% 1015.9hPa (30.00 inHg) 0.0mm (0.00 in.)
21:45 24.0°C (75.2 °F) 11.1 kmh (6.9 mph) N 78% 1014.9hPa (29.97 inHg) 0.0mm (0.00 in.)
20:45 25.0°C (77.0 °F) 7.4 kmh (4.6 mph) SSW 73% 1014.9hPa (29.97 inHg) 0.0mm (0.00 in.)
19:45 27.0°C (80.6 °F) 13.0 kmh (8.1 mph) S 65% 1014.9hPa (29.97 inHg) 0.0mm (0.00 in.)
18:45 29.0°C (84.2 °F) 11.1 kmh (6.9 mph) E 58% 1014.9hPa (29.97 inHg) 0.0mm (0.00 in.)
17:45 29.0°C (84.2 °F) 11.1 kmh (6.9 mph) E 58% 1014.9hPa (29.97 inHg) 0.0mm (0.00 in.)
16:45 28.0°C (82.4 °F) 11.1 kmh (6.9 mph) E 61% 1014.9hPa (29.97 inHg) 0.0mm (0.00 in.)
15:45 30.0°C (86.0 °F) 13.0 kmh (8.1 mph) SW 51% 1014.9hPa (29.97 inHg) 0.0mm (0.00 in.)
14:45 28.0°C (82.4 °F) 13.0 kmh (8.1 mph) SSW 61% 1015.9hPa (30.00 inHg) 0.0mm (0.00 in.)
13:45 28.0°C (82.4 °F) 13.0 kmh (8.1 mph) SSW 61% 1015.9hPa (30.00 inHg) 0.0mm (0.00 in.)
12:45 28.0°C (82.4 °F) 9.3 kmh (5.8 mph) NE 61% 1015.9hPa (30.00 inHg) 0.0mm (0.00 in.)
11:45 28.0°C (82.4 °F) 9.3 kmh (5.8 mph) NE 61% 1015.9hPa (30.00 inHg) 0.0mm (0.00 in.)
10:45 27.0°C (80.6 °F) 11.1 kmh (6.9 mph) NNE 65% 1015.9hPa (30.00 inHg) 0.0mm (0.00 in.)